Ridgefield, North Carolina
Current Conditions -  °F | °C
As of 2:54 PM on Thursday 27 Nov 2014 (Local Time) from KGSO Reporting Station
Broken Clouds Broken Clouds  
Wind Chill: 39°   Ceiling: 6000
Heat Index: 46°   Visibility: 10mi
Dew Point: 30°   Wind: 17mph
Humidity: 54%   Direction: 310°NW
Pressure: 30.07"   Gusts: NA
Location:  36.1197°N, 79.8944°W
Report Text: KGSO 271954Z 31015KT 10SM FEW028 BKN060 08/M01 A3007 RMK AO2 SLP185 T00781011 $
Loading
Personal Weather Stations






























Interactive Weather Map New forecast layout! Learn more

10-Day Weather Forecast

Advertisements
Track Severe Weather on mobile